sensor_id;sensor_type;location;lat;lon;timestamp;P1;P2;P0
72023;PMS5003;59889;50.700;5.440;2023-02-07T00:01:08;5;4;
72023;PMS5003;59889;50.700;5.440;2023-02-07T00:03:32;4;4;
72023;PMS5003;59889;50.700;5.440;2023-02-07T00:08:23;6;5;
72023;PMS5003;59889;50.700;5.440;2023-02-07T00:10:48;3;3;
72023;PMS5003;59889;50.700;5.440;2023-02-07T00:13:13;5;5;
72023;PMS5003;59889;50.700;5.440;2023-02-07T00:15:38;5;4;
72023;PMS5003;59889;50.700;5.440;2023-02-07T00:18:03;3;3;
72023;PMS5003;59889;50.700;5.440;2023-02-07T00:20:28;4;4;
72023;PMS5003;59889;50.700;5.440;2023-02-07T00:22:53;4;4;
72023;PMS5003;59889;50.700;5.440;2023-02-07T00:25:18;4;4;
72023;PMS5003;59889;50.700;5.440;2023-02-07T00:27:43;7;6;
72023;PMS5003;59889;50.700;5.440;2023-02-07T00:30:09;5;4;
72023;PMS5003;59889;50.700;5.440;2023-02-07T00:32:33;5;5;
72023;PMS5003;59889;50.700;5.440;2023-02-07T00:34:59;4;4;
72023;PMS5003;59889;50.700;5.440;2023-02-07T00:37:24;3;3;
72023;PMS5003;59889;50.700;5.440;2023-02-07T00:39:49;5;5;
72023;PMS5003;59889;50.700;5.440;2023-02-07T00:42:14;4;4;
72023;PMS5003;59889;50.700;5.440;2023-02-07T00:44:39;5;5;
72023;PMS5003;59889;50.700;5.440;2023-02-07T00:47:04;3;3;
72023;PMS5003;59889;50.700;5.440;2023-02-07T00:49:29;5;5;
72023;PMS5003;59889;50.700;5.440;2023-02-07T00:51:54;4;4;
72023;PMS5003;59889;50.700;5.440;2023-02-07T00:54:19;3;3;
72023;PMS5003;59889;50.700;5.440;2023-02-07T00:56:44;5;5;
72023;PMS5003;59889;50.700;5.440;2023-02-07T00:59:09;4;4;
72023;PMS5003;59889;50.700;5.440;2023-02-07T01:01:34;3;3;
72023;PMS5003;59889;50.700;5.440;2023-02-07T01:04:00;4;4;
72023;PMS5003;59889;50.700;5.440;2023-02-07T01:06:25;5;5;
72023;PMS5003;59889;50.700;5.440;2023-02-07T01:08:54;4;4;
72023;PMS5003;59889;50.700;5.440;2023-02-07T01:11:15;5;4;
72023;PMS5003;59889;50.700;5.440;2023-02-07T01:13:40;5;5;
72023;PMS5003;59889;50.700;5.440;2023-02-07T01:16:05;4;4;
72023;PMS5003;59889;50.700;5.440;2023-02-07T01:18:30;4;4;
72023;PMS5003;59889;50.700;5.440;2023-02-07T01:20:55;5;5;
72023;PMS5003;59889;50.700;5.440;2023-02-07T01:23:20;4;4;
72023;PMS5003;59889;50.700;5.440;2023-02-07T01:25:45;6;5;
72023;PMS5003;59889;50.700;5.440;2023-02-07T01:28:11;6;5;
72023;PMS5003;59889;50.700;5.440;2023-02-07T01:30:37;4;4;
72023;PMS5003;59889;50.700;5.440;2023-02-07T01:33:01;4;4;
72023;PMS5003;59889;50.700;5.440;2023-02-07T01:35:26;4;3;
72023;PMS5003;59889;50.700;5.440;2023-02-07T01:37:51;4;4;
72023;PMS5003;59889;50.700;5.440;2023-02-07T01:40:16;3;3;
72023;PMS5003;59889;50.700;5.440;2023-02-07T01:42:41;5;5;
72023;PMS5003;59889;50.700;5.440;2023-02-07T01:45:14;4;4;
72023;PMS5003;59889;50.700;5.440;2023-02-07T01:47:31;3;3;
72023;PMS5003;59889;50.700;5.440;2023-02-07T01:49:56;2;2;
72023;PMS5003;59889;50.700;5.440;2023-02-07T01:52:23;5;4;
72023;PMS5003;59889;50.700;5.440;2023-02-07T01:54:48;5;5;
72023;PMS5003;59889;50.700;5.440;2023-02-07T01:57:12;4;3;
72023;PMS5003;59889;50.700;5.440;2023-02-07T01:59:37;4;4;
72023;PMS5003;59889;50.700;5.440;2023-02-07T02:02:02;4;4;
72023;PMS5003;59889;50.700;5.440;2023-02-07T02:04:27;2;2;
72023;PMS5003;59889;50.700;5.440;2023-02-07T02:06:52;4;4;
72023;PMS5003;59889;50.700;5.440;2023-02-07T02:09:17;4;4;
72023;PMS5003;59889;50.700;5.440;2023-02-07T02:11:50;4;3;
72023;PMS5003;59889;50.700;5.440;2023-02-07T02:14:09;3;3;
72023;PMS5003;59889;50.700;5.440;2023-02-07T02:16:33;5;5;
72023;PMS5003;59889;50.700;5.440;2023-02-07T02:19:02;4;4;
72023;PMS5003;59889;50.700;5.440;2023-02-07T02:21:35;4;4;
72023;PMS5003;59889;50.700;5.440;2023-02-07T02:23:53;4;4;
72023;PMS5003;59889;50.700;5.440;2023-02-07T02:26:21;3;3;
72023;PMS5003;59889;50.700;5.440;2023-02-07T02:28:44;5;4;
72023;PMS5003;59889;50.700;5.440;2023-02-07T02:31:08;5;4;
72023;PMS5003;59889;50.700;5.440;2023-02-07T02:33:33;4;4;
72023;PMS5003;59889;50.700;5.440;2023-02-07T02:35:55;4;4;
72023;PMS5003;59889;50.700;5.440;2023-02-07T02:38:20;3;3;
72023;PMS5003;59889;50.700;5.440;2023-02-07T02:40:45;3;2;
72023;PMS5003;59889;50.700;5.440;2023-02-07T02:43:11;2;2;
72023;PMS5003;59889;50.700;5.440;2023-02-07T02:45:35;3;3;
72023;PMS5003;59889;50.700;5.440;2023-02-07T02:47:58;4;4;
72023;PMS5003;59889;50.700;5.440;2023-02-07T02:50:24;4;4;
72023;PMS5003;59889;50.700;5.440;2023-02-07T02:52:49;5;5;
72023;PMS5003;59889;50.700;5.440;2023-02-07T02:55:14;4;4;
72023;PMS5003;59889;50.700;5.440;2023-02-07T02:57:43;6;4;
72023;PMS5003;59889;50.700;5.440;2023-02-07T03:00:10;6;5;
72023;PMS5003;59889;50.700;5.440;2023-02-07T03:02:31;3;3;
72023;PMS5003;59889;50.700;5.440;2023-02-07T03:04:57;4;4;
72023;PMS5003;59889;50.700;5.440;2023-02-07T03:07:23;3;3;
72023;PMS5003;59889;50.700;5.440;2023-02-07T03:09:47;3;2;
72023;PMS5003;59889;50.700;5.440;2023-02-07T03:12:12;3;3;
72023;PMS5003;59889;50.700;5.440;2023-02-07T03:14:35;4;4;
72023;PMS5003;59889;50.700;5.440;2023-02-07T03:17:02;4;4;
72023;PMS5003;59889;50.700;5.440;2023-02-07T03:19:26;4;4;
72023;PMS5003;59889;50.700;5.440;2023-02-07T03:21:50;3;3;
72023;PMS5003;59889;50.700;5.440;2023-02-07T03:24:15;5;4;
72023;PMS5003;59889;50.700;5.440;2023-02-07T03:26:40;4;4;
72023;PMS5003;59889;50.700;5.440;2023-02-07T03:29:05;4;4;
72023;PMS5003;59889;50.700;5.440;2023-02-07T03:31:30;4;4;
72023;PMS5003;59889;50.700;5.440;2023-02-07T03:33:57;2;2;
72023;PMS5003;59889;50.700;5.440;2023-02-07T03:36:20;4;4;
72023;PMS5003;59889;50.700;5.440;2023-02-07T03:38:45;3;3;
72023;PMS5003;59889;50.700;5.440;2023-02-07T03:41:12;3;3;
72023;PMS5003;59889;50.700;5.440;2023-02-07T03:43:35;3;3;
72023;PMS5003;59889;50.700;5.440;2023-02-07T03:46:00;3;3;
72023;PMS5003;59889;50.700;5.440;2023-02-07T03:48:25;1;1;
72023;PMS5003;59889;50.700;5.440;2023-02-07T03:50:51;4;3;
72023;PMS5003;59889;50.700;5.440;2023-02-07T03:53:16;4;4;
72023;PMS5003;59889;50.700;5.440;2023-02-07T03:55:41;4;3;
72023;PMS5003;59889;50.700;5.440;2023-02-07T03:58:06;4;4;
72023;PMS5003;59889;50.700;5.440;2023-02-07T04:00:31;9;5;
72023;PMS5003;59889;50.700;5.440;2023-02-07T04:02:56;4;3;
72023;PMS5003;59889;50.700;5.440;2023-02-07T04:05:21;4;4;
72023;PMS5003;59889;50.700;5.440;2023-02-07T04:07:46;3;2;
72023;PMS5003;59889;50.700;5.440;2023-02-07T04:10:11;5;5;
72023;PMS5003;59889;50.700;5.440;2023-02-07T04:12:36;4;4;
72023;PMS5003;59889;50.700;5.440;2023-02-07T04:15:02;4;4;
72023;PMS5003;59889;50.700;5.440;2023-02-07T04:17:27;4;3;
72023;PMS5003;59889;50.700;5.440;2023-02-07T04:19:52;4;4;
72023;PMS5003;59889;50.700;5.440;2023-02-07T04:22:17;4;4;
72023;PMS5003;59889;50.700;5.440;2023-02-07T04:24:42;5;4;
72023;PMS5003;59889;50.700;5.440;2023-02-07T04:27:07;3;3;
72023;PMS5003;59889;50.700;5.440;2023-02-07T04:29:32;4;4;
72023;PMS5003;59889;50.700;5.440;2023-02-07T04:31:57;4;3;
72023;PMS5003;59889;50.700;5.440;2023-02-07T04:34:22;4;4;
72023;PMS5003;59889;50.700;5.440;2023-02-07T04:36:47;4;4;
72023;PMS5003;59889;50.700;5.440;2023-02-07T04:39:12;4;4;
72023;PMS5003;59889;50.700;5.440;2023-02-07T04:41:37;4;4;
72023;PMS5003;59889;50.700;5.440;2023-02-07T04:44:02;4;3;
72023;PMS5003;59889;50.700;5.440;2023-02-07T04:46:28;5;4;
72023;PMS5003;59889;50.700;5.440;2023-02-07T04:48:53;4;4;
72023;PMS5003;59889;50.700;5.440;2023-02-07T04:51:18;4;3;
72023;PMS5003;59889;50.700;5.440;2023-02-07T04:53:43;3;3;
72023;PMS5003;59889;50.700;5.440;2023-02-07T04:56:08;5;5;
72023;PMS5003;59889;50.700;5.440;2023-02-07T04:58:33;3;3;
72023;PMS5003;59889;50.700;5.440;2023-02-07T05:00:58;4;3;
72023;PMS5003;59889;50.700;5.440;2023-02-07T05:03:23;6;5;
72023;PMS5003;59889;50.700;5.440;2023-02-07T05:05:51;5;5;
72023;PMS5003;59889;50.700;5.440;2023-02-07T05:08:13;7;7;
72023;PMS5003;59889;50.700;5.440;2023-02-07T05:10:39;10;10;
72023;PMS5003;59889;50.700;5.440;2023-02-07T05:13:04;10;8;
72023;PMS5003;59889;50.700;5.440;2023-02-07T05:15:29;7;6;
72023;PMS5003;59889;50.700;5.440;2023-02-07T05:17:54;11;11;
72023;PMS5003;59889;50.700;5.440;2023-02-07T05:20:19;10;9;
72023;PMS5003;59889;50.700;5.440;2023-02-07T05:22:45;11;11;
72023;PMS5003;59889;50.700;5.440;2023-02-07T05:25:10;9;9;
72023;PMS5003;59889;50.700;5.440;2023-02-07T05:27:35;14;12;
72023;PMS5003;59889;50.700;5.440;2023-02-07T05:30:00;14;13;
72023;PMS5003;59889;50.700;5.440;2023-02-07T05:32:26;13;11;
72023;PMS5003;59889;50.700;5.440;2023-02-07T05:34:51;13;12;
72023;PMS5003;59889;50.700;5.440;2023-02-07T05:37:16;15;12;
72023;PMS5003;59889;50.700;5.440;2023-02-07T05:39:41;11;10;
72023;PMS5003;59889;50.700;5.440;2023-02-07T05:42:07;15;13;
72023;PMS5003;59889;50.700;5.440;2023-02-07T05:44:32;10;10;
72023;PMS5003;59889;50.700;5.440;2023-02-07T05:46:57;12;11;
72023;PMS5003;59889;50.700;5.440;2023-02-07T05:49:22;10;9;
72023;PMS5003;59889;50.700;5.440;2023-02-07T05:51:48;9;9;
72023;PMS5003;59889;50.700;5.440;2023-02-07T05:54:14;11;10;
72023;PMS5003;59889;50.700;5.440;2023-02-07T05:56:39;15;13;
72023;PMS5003;59889;50.700;5.440;2023-02-07T05:59:04;12;10;
72023;PMS5003;59889;50.700;5.440;2023-02-07T06:01:30;10;9;
72023;PMS5003;59889;50.700;5.440;2023-02-07T06:03:55;12;11;
72023;PMS5003;59889;50.700;5.440;2023-02-07T06:06:21;11;10;
72023;PMS5003;59889;50.700;5.440;2023-02-07T06:08:46;11;9;
72023;PMS5003;59889;50.700;5.440;2023-02-07T06:11:11;9;9;
72023;PMS5003;59889;50.700;5.440;2023-02-07T06:13:36;11;8;
72023;PMS5003;59889;50.700;5.440;2023-02-07T06:16:01;11;9;
72023;PMS5003;59889;50.700;5.440;2023-02-07T06:18:27;11;10;
72023;PMS5003;59889;50.700;5.440;2023-02-07T06:20:52;11;11;
72023;PMS5003;59889;50.700;5.440;2023-02-07T06:23:17;7;6;
72023;PMS5003;59889;50.700;5.440;2023-02-07T06:25:42;11;10;
72023;PMS5003;59889;50.700;5.440;2023-02-07T06:28:07;14;10;
72023;PMS5003;59889;50.700;5.440;2023-02-07T06:30:32;12;10;
72023;PMS5003;59889;50.700;5.440;2023-02-07T06:32:57;8;8;
72023;PMS5003;59889;50.700;5.440;2023-02-07T06:35:22;8;8;
72023;PMS5003;59889;50.700;5.440;2023-02-07T06:37:48;7;6;
72023;PMS5003;59889;50.700;5.440;2023-02-07T06:40:12;9;8;
72023;PMS5003;59889;50.700;5.440;2023-02-07T06:42:38;11;8;
72023;PMS5003;59889;50.700;5.440;2023-02-07T06:45:03;7;7;
72023;PMS5003;59889;50.700;5.440;2023-02-07T06:47:28;12;11;
72023;PMS5003;59889;50.700;5.440;2023-02-07T06:49:54;9;9;
72023;PMS5003;59889;50.700;5.440;2023-02-07T06:52:19;9;9;
72023;PMS5003;59889;50.700;5.440;2023-02-07T06:54:44;7;6;
72023;PMS5003;59889;50.700;5.440;2023-02-07T06:57:09;7;6;
72023;PMS5003;59889;50.700;5.440;2023-02-07T06:59:36;10;9;
72023;PMS5003;59889;50.700;5.440;2023-02-07T07:02:00;7;7;
72023;PMS5003;59889;50.700;5.440;2023-02-07T07:04:25;7;7;
72023;PMS5003;59889;50.700;5.440;2023-02-07T07:06:50;6;6;
72023;PMS5003;59889;50.700;5.440;2023-02-07T07:09:15;8;8;
72023;PMS5003;59889;50.700;5.440;2023-02-07T07:11:40;8;7;
72023;PMS5003;59889;50.700;5.440;2023-02-07T07:14:05;9;8;
72023;PMS5003;59889;50.700;5.440;2023-02-07T07:16:30;6;6;
72023;PMS5003;59889;50.700;5.440;2023-02-07T07:18:55;9;8;
72023;PMS5003;59889;50.700;5.440;2023-02-07T07:21:21;8;7;
72023;PMS5003;59889;50.700;5.440;2023-02-07T07:23:46;5;5;
72023;PMS5003;59889;50.700;5.440;2023-02-07T07:26:11;6;5;
72023;PMS5003;59889;50.700;5.440;2023-02-07T07:28:37;10;9;
72023;PMS5003;59889;50.700;5.440;2023-02-07T07:31:02;7;6;
72023;PMS5003;59889;50.700;5.440;2023-02-07T07:33:26;7;6;
72023;PMS5003;59889;50.700;5.440;2023-02-07T07:35:53;5;5;
72023;PMS5003;59889;50.700;5.440;2023-02-07T07:38:17;6;6;
72023;PMS5003;59889;50.700;5.440;2023-02-07T07:40:41;7;7;
72023;PMS5003;59889;50.700;5.440;2023-02-07T07:43:07;6;6;
72023;PMS5003;59889;50.700;5.440;2023-02-07T07:45:32;7;7;
72023;PMS5003;59889;50.700;5.440;2023-02-07T07:47:57;7;7;
72023;PMS5003;59889;50.700;5.440;2023-02-07T07:50:22;6;6;
72023;PMS5003;59889;50.700;5.440;2023-02-07T07:52:47;5;5;
72023;PMS5003;59889;50.700;5.440;2023-02-07T07:55:12;4;4;
72023;PMS5003;59889;50.700;5.440;2023-02-07T07:57:37;7;7;
72023;PMS5003;59889;50.700;5.440;2023-02-07T08:00:03;6;6;
72023;PMS5003;59889;50.700;5.440;2023-02-07T08:02:27;6;6;
72023;PMS5003;59889;50.700;5.440;2023-02-07T08:04:53;9;9;
72023;PMS5003;59889;50.700;5.440;2023-02-07T08:07:18;9;9;
72023;PMS5003;59889;50.700;5.440;2023-02-07T08:09:43;6;6;
72023;PMS5003;59889;50.700;5.440;2023-02-07T08:12:08;7;5;
72023;PMS5003;59889;50.700;5.440;2023-02-07T08:14:33;8;8;
72023;PMS5003;59889;50.700;5.440;2023-02-07T08:16:58;7;7;
72023;PMS5003;59889;50.700;5.440;2023-02-07T08:19:23;6;6;
72023;PMS5003;59889;50.700;5.440;2023-02-07T08:21:48;6;6;
72023;PMS5003;59889;50.700;5.440;2023-02-07T08:24:13;7;7;
72023;PMS5003;59889;50.700;5.440;2023-02-07T08:26:39;7;6;
72023;PMS5003;59889;50.700;5.440;2023-02-07T08:29:04;6;6;
72023;PMS5003;59889;50.700;5.440;2023-02-07T08:31:29;6;6;
72023;PMS5003;59889;50.700;5.440;2023-02-07T08:33:54;9;7;
72023;PMS5003;59889;50.700;5.440;2023-02-07T08:36:19;6;6;
72023;PMS5003;59889;50.700;5.440;2023-02-07T08:38:44;7;6;
72023;PMS5003;59889;50.700;5.440;2023-02-07T08:41:09;6;5;
72023;PMS5003;59889;50.700;5.440;2023-02-07T08:43:34;7;7;
72023;PMS5003;59889;50.700;5.440;2023-02-07T08:45:59;5;5;
72023;PMS5003;59889;50.700;5.440;2023-02-07T08:48:24;8;7;
72023;PMS5003;59889;50.700;5.440;2023-02-07T08:50:50;6;5;
72023;PMS5003;59889;50.700;5.440;2023-02-07T08:53:15;11;8;
72023;PMS5003;59889;50.700;5.440;2023-02-07T08:55:40;7;6;
72023;PMS5003;59889;50.700;5.440;2023-02-07T08:58:05;6;6;
72023;PMS5003;59889;50.700;5.440;2023-02-07T09:00:30;6;6;
72023;PMS5003;59889;50.700;5.440;2023-02-07T09:02:55;5;5;
72023;PMS5003;59889;50.700;5.440;2023-02-07T09:05:20;7;6;
72023;PMS5003;59889;50.700;5.440;2023-02-07T09:07:45;7;6;
72023;PMS5003;59889;50.700;5.440;2023-02-07T09:10:10;4;4;
72023;PMS5003;59889;50.700;5.440;2023-02-07T09:12:36;5;5;
72023;PMS5003;59889;50.700;5.440;2023-02-07T09:15:01;6;6;
72023;PMS5003;59889;50.700;5.440;2023-02-07T09:17:26;6;5;
72023;PMS5003;59889;50.700;5.440;2023-02-07T09:19:51;5;5;
72023;PMS5003;59889;50.700;5.440;2023-02-07T09:22:16;7;6;
72023;PMS5003;59889;50.700;5.440;2023-02-07T09:24:41;6;6;
72023;PMS5003;59889;50.700;5.440;2023-02-07T09:27:06;6;6;
72023;PMS5003;59889;50.700;5.440;2023-02-07T09:29:31;5;5;
72023;PMS5003;59889;50.700;5.440;2023-02-07T09:31:56;9;8;
72023;PMS5003;59889;50.700;5.440;2023-02-07T09:34:21;6;6;
72023;PMS5003;59889;50.700;5.440;2023-02-07T09:36:47;6;6;
72023;PMS5003;59889;50.700;5.440;2023-02-07T09:39:12;7;6;
72023;PMS5003;59889;50.700;5.440;2023-02-07T09:41:39;6;6;
72023;PMS5003;59889;50.700;5.440;2023-02-07T09:44:04;6;6;
72023;PMS5003;59889;50.700;5.440;2023-02-07T09:46:28;7;5;
72023;PMS5003;59889;50.700;5.440;2023-02-07T09:48:53;6;5;
72023;PMS5003;59889;50.700;5.440;2023-02-07T09:51:18;11;11;
72023;PMS5003;59889;50.700;5.440;2023-02-07T09:53:43;5;5;
72023;PMS5003;59889;50.700;5.440;2023-02-07T09:56:08;7;6;
72023;PMS5003;59889;50.700;5.440;2023-02-07T09:58:34;6;6;
72023;PMS5003;59889;50.700;5.440;2023-02-07T10:00:59;7;7;
72023;PMS5003;59889;50.700;5.440;2023-02-07T10:03:24;7;5;
72023;PMS5003;59889;50.700;5.440;2023-02-07T10:05:51;6;6;
72023;PMS5003;59889;50.700;5.440;2023-02-07T10:08:14;5;5;
72023;PMS5003;59889;50.700;5.440;2023-02-07T10:10:40;5;4;
72023;PMS5003;59889;50.700;5.440;2023-02-07T10:13:05;5;5;
72023;PMS5003;59889;50.700;5.440;2023-02-07T10:15:36;5;4;
72023;PMS5003;59889;50.700;5.440;2023-02-07T10:18:01;8;7;
72023;PMS5003;59889;50.700;5.440;2023-02-07T10:22:46;5;5;
72023;PMS5003;59889;50.700;5.440;2023-02-07T10:25:16;8;6;
72023;PMS5003;59889;50.700;5.440;2023-02-07T10:27:36;6;4;
72023;PMS5003;59889;50.700;5.440;2023-02-07T10:30:03;7;6;
72023;PMS5003;59889;50.700;5.440;2023-02-07T10:32:25;5;5;
72023;PMS5003;59889;50.700;5.440;2023-02-07T10:34:51;7;6;
72023;PMS5003;59889;50.700;5.440;2023-02-07T10:37:16;6;6;
72023;PMS5003;59889;50.700;5.440;2023-02-07T10:39:41;6;6;
72023;PMS5003;59889;50.700;5.440;2023-02-07T10:42:06;4;4;
72023;PMS5003;59889;50.700;5.440;2023-02-07T10:44:30;6;5;
72023;PMS5003;59889;50.700;5.440;2023-02-07T10:46:57;5;5;
72023;PMS5003;59889;50.700;5.440;2023-02-07T10:49:21;5;5;
72023;PMS5003;59889;50.700;5.440;2023-02-07T10:51:46;6;6;
72023;PMS5003;59889;50.700;5.440;2023-02-07T10:54:12;8;7;
72023;PMS5003;59889;50.700;5.440;2023-02-07T10:56:39;5;5;
72023;PMS5003;59889;50.700;5.440;2023-02-07T10:59:01;5;5;
72023;PMS5003;59889;50.700;5.440;2023-02-07T11:01:26;8;8;
72023;PMS5003;59889;50.700;5.440;2023-02-07T11:03:51;4;4;
72023;PMS5003;59889;50.700;5.440;2023-02-07T11:06:22;5;5;
72023;PMS5003;59889;50.700;5.440;2023-02-07T11:08:41;4;4;
72023;PMS5003;59889;50.700;5.440;2023-02-07T11:13:35;4;4;
72023;PMS5003;59889;50.700;5.440;2023-02-07T11:15:58;4;4;
72023;PMS5003;59889;50.700;5.440;2023-02-07T11:18:24;4;4;
72023;PMS5003;59889;50.700;5.440;2023-02-07T11:20:47;4;4;
72023;PMS5003;59889;50.700;5.440;2023-02-07T11:23:12;5;5;
72023;PMS5003;59889;50.700;5.440;2023-02-07T11:25:37;5;5;
72023;PMS5003;59889;50.700;5.440;2023-02-07T11:28:02;5;4;
72023;PMS5003;59889;50.700;5.440;2023-02-07T11:30:27;4;4;
72023;PMS5003;59889;50.700;5.440;2023-02-07T11:32:53;5;5;
72023;PMS5003;59889;50.700;5.440;2023-02-07T11:35:18;5;5;
72023;PMS5003;59889;50.700;5.440;2023-02-07T11:37:45;5;5;
72023;PMS5003;59889;50.700;5.440;2023-02-07T11:40:18;4;4;
72023;PMS5003;59889;50.700;5.440;2023-02-07T11:42:34;5;5;
72023;PMS5003;59889;50.700;5.440;2023-02-07T11:45:02;4;4;
72023;PMS5003;59889;50.700;5.440;2023-02-07T11:47:24;5;5;
72023;PMS5003;59889;50.700;5.440;2023-02-07T11:49:49;4;4;
72023;PMS5003;59889;50.700;5.440;2023-02-07T11:52:13;4;4;
72023;PMS5003;59889;50.700;5.440;2023-02-07T11:54:39;5;4;
72023;PMS5003;59889;50.700;5.440;2023-02-07T11:57:04;5;4;
72023;PMS5003;59889;50.700;5.440;2023-02-07T11:59:29;5;5;
72023;PMS5003;59889;50.700;5.440;2023-02-07T12:01:54;5;5;
72023;PMS5003;59889;50.700;5.440;2023-02-07T12:04:20;4;3;
72023;PMS5003;59889;50.700;5.440;2023-02-07T12:06:45;5;5;
72023;PMS5003;59889;50.700;5.440;2023-02-07T12:09:15;5;5;
72023;PMS5003;59889;50.700;5.440;2023-02-07T12:11:35;5;4;
72023;PMS5003;59889;50.700;5.440;2023-02-07T12:14:01;5;4;
72023;PMS5003;59889;50.700;5.440;2023-02-07T12:16:25;4;3;
72023;PMS5003;59889;50.700;5.440;2023-02-07T12:18:50;5;5;
72023;PMS5003;59889;50.700;5.440;2023-02-07T12:21:17;4;4;
72023;PMS5003;59889;50.700;5.440;2023-02-07T12:23:40;5;5;
72023;PMS5003;59889;50.700;5.440;2023-02-07T12:26:06;5;3;
72023;PMS5003;59889;50.700;5.440;2023-02-07T12:28:32;3;3;
72023;PMS5003;59889;50.700;5.440;2023-02-07T12:30:56;6;4;
72023;PMS5003;59889;50.700;5.440;2023-02-07T12:33:21;6;5;
72023;PMS5003;59889;50.700;5.440;2023-02-07T12:35:47;5;5;
72023;PMS5003;59889;50.700;5.440;2023-02-07T12:38:14;6;6;
72023;PMS5003;59889;50.700;5.440;2023-02-07T12:40:37;4;4;
72023;PMS5003;59889;50.700;5.440;2023-02-07T12:43:01;5;4;
72023;PMS5003;59889;50.700;5.440;2023-02-07T12:45:30;6;5;
72023;PMS5003;59889;50.700;5.440;2023-02-07T12:47:52;3;3;
72023;PMS5003;59889;50.700;5.440;2023-02-07T12:50:20;5;5;
72023;PMS5003;59889;50.700;5.440;2023-02-07T12:52:43;4;4;
72023;PMS5003;59889;50.700;5.440;2023-02-07T12:55:10;3;3;
72023;PMS5003;59889;50.700;5.440;2023-02-07T12:57:32;5;4;
72023;PMS5003;59889;50.700;5.440;2023-02-07T12:59:58;4;4;
72023;PMS5003;59889;50.700;5.440;2023-02-07T13:02:28;5;5;
72023;PMS5003;59889;50.700;5.440;2023-02-07T13:04:57;2;2;
72023;PMS5003;59889;50.700;5.440;2023-02-07T13:07:15;4;4;
72023;PMS5003;59889;50.700;5.440;2023-02-07T13:09:38;4;4;
72023;PMS5003;59889;50.700;5.440;2023-02-07T13:12:03;5;5;
72023;PMS5003;59889;50.700;5.440;2023-02-07T13:14:29;5;5;
72023;PMS5003;59889;50.700;5.440;2023-02-07T13:16:55;6;6;
72023;PMS5003;59889;50.700;5.440;2023-02-07T13:19:18;4;4;
72023;PMS5003;59889;50.700;5.440;2023-02-07T13:21:43;3;3;
72023;PMS5003;59889;50.700;5.440;2023-02-07T13:24:09;4;4;
72023;PMS5003;59889;50.700;5.440;2023-02-07T13:26:33;3;3;
72023;PMS5003;59889;50.700;5.440;2023-02-07T13:28:58;4;4;
72023;PMS5003;59889;50.700;5.440;2023-02-07T13:31:23;6;6;
72023;PMS5003;59889;50.700;5.440;2023-02-07T13:33:48;5;5;
72023;PMS5003;59889;50.700;5.440;2023-02-07T13:36:15;3;3;
72023;PMS5003;59889;50.700;5.440;2023-02-07T13:38:41;5;5;
72023;PMS5003;59889;50.700;5.440;2023-02-07T13:41:04;3;3;
72023;PMS5003;59889;50.700;5.440;2023-02-07T13:43:30;4;4;
72023;PMS5003;59889;50.700;5.440;2023-02-07T13:45:54;5;5;
72023;PMS5003;59889;50.700;5.440;2023-02-07T13:48:20;4;3;
72023;PMS5003;59889;50.700;5.440;2023-02-07T13:50:46;4;4;
72023;PMS5003;59889;50.700;5.440;2023-02-07T13:53:13;4;4;
72023;PMS5003;59889;50.700;5.440;2023-02-07T13:55:34;4;3;
72023;PMS5003;59889;50.700;5.440;2023-02-07T13:57:59;5;5;
72023;PMS5003;59889;50.700;5.440;2023-02-07T14:00:24;4;4;
72023;PMS5003;59889;50.700;5.440;2023-02-07T14:02:50;4;4;
72023;PMS5003;59889;50.700;5.440;2023-02-07T14:05:21;4;4;
72023;PMS5003;59889;50.700;5.440;2023-02-07T14:07:39;5;5;
72023;PMS5003;59889;50.700;5.440;2023-02-07T14:10:04;6;5;
72023;PMS5003;59889;50.700;5.440;2023-02-07T14:12:30;7;6;
72023;PMS5003;59889;50.700;5.440;2023-02-07T14:14:55;4;3;
72023;PMS5003;59889;50.700;5.440;2023-02-07T14:19:47;3;3;
72023;PMS5003;59889;50.700;5.440;2023-02-07T14:22:12;6;6;
72023;PMS5003;59889;50.700;5.440;2023-02-07T14:24:35;3;3;
72023;PMS5003;59889;50.700;5.440;2023-02-07T14:27:02;4;4;
72023;PMS5003;59889;50.700;5.440;2023-02-07T14:31:53;5;4;
72023;PMS5003;59889;50.700;5.440;2023-02-07T14:34:17;3;3;
72023;PMS5003;59889;50.700;5.440;2023-02-07T14:36:41;3;3;
72023;PMS5003;59889;50.700;5.440;2023-02-07T14:41:31;5;5;
72023;PMS5003;59889;50.700;5.440;2023-02-07T14:43:56;6;6;
72023;PMS5003;59889;50.700;5.440;2023-02-07T14:46:24;5;5;
72023;PMS5003;59889;50.700;5.440;2023-02-07T14:48:47;4;4;
72023;PMS5003;59889;50.700;5.440;2023-02-07T14:51:12;4;4;
72023;PMS5003;59889;50.700;5.440;2023-02-07T14:53:36;4;4;
72023;PMS5003;59889;50.700;5.440;2023-02-07T14:56:01;3;2;
72023;PMS5003;59889;50.700;5.440;2023-02-07T14:58:28;4;4;
72023;PMS5003;59889;50.700;5.440;2023-02-07T15:00:52;6;4;
72023;PMS5003;59889;50.700;5.440;2023-02-07T15:03:17;3;3;
72023;PMS5003;59889;50.700;5.440;2023-02-07T15:05:47;3;2;
72023;PMS5003;59889;50.700;5.440;2023-02-07T15:08:12;3;3;
72023;PMS5003;59889;50.700;5.440;2023-02-07T15:10:32;4;4;
72023;PMS5003;59889;50.700;5.440;2023-02-07T15:12:57;5;5;
72023;PMS5003;59889;50.700;5.440;2023-02-07T15:15:23;3;3;
72023;PMS5003;59889;50.700;5.440;2023-02-07T15:17:47;4;4;
72023;PMS5003;59889;50.700;5.440;2023-02-07T15:20:13;3;3;
72023;PMS5003;59889;50.700;5.440;2023-02-07T15:22:37;7;5;
72023;PMS5003;59889;50.700;5.440;2023-02-07T15:25:03;4;3;
72023;PMS5003;59889;50.700;5.440;2023-02-07T15:27:28;4;3;
72023;PMS5003;59889;50.700;5.440;2023-02-07T15:29:53;3;3;
72023;PMS5003;59889;50.700;5.440;2023-02-07T15:32:19;4;3;
72023;PMS5003;59889;50.700;5.440;2023-02-07T15:34:43;3;2;
72023;PMS5003;59889;50.700;5.440;2023-02-07T15:37:11;4;4;
72023;PMS5003;59889;50.700;5.440;2023-02-07T15:39:33;6;5;
72023;PMS5003;59889;50.700;5.440;2023-02-07T15:41:58;3;3;
72023;PMS5003;59889;50.700;5.440;2023-02-07T15:44:24;3;3;
72023;PMS5003;59889;50.700;5.440;2023-02-07T15:46:49;4;4;
72023;PMS5003;59889;50.700;5.440;2023-02-07T15:51:39;3;3;
72023;PMS5003;59889;50.700;5.440;2023-02-07T15:54:03;4;3;
72023;PMS5003;59889;50.700;5.440;2023-02-07T15:56:28;3;3;
72023;PMS5003;59889;50.700;5.440;2023-02-07T15:58:54;3;3;
72023;PMS5003;59889;50.700;5.440;2023-02-07T16:01:22;2;2;
72023;PMS5003;59889;50.700;5.440;2023-02-07T16:03:44;3;3;
72023;PMS5003;59889;50.700;5.440;2023-02-07T16:06:11;3;3;
72023;PMS5003;59889;50.700;5.440;2023-02-07T16:08:35;4;4;
72023;PMS5003;59889;50.700;5.440;2023-02-07T16:13:24;3;3;
72023;PMS5003;59889;50.700;5.440;2023-02-07T16:15:51;2;2;
72023;PMS5003;59889;50.700;5.440;2023-02-07T16:18:32;3;3;
72023;PMS5003;59889;50.700;5.440;2023-02-07T16:20:39;3;3;
72023;PMS5003;59889;50.700;5.440;2023-02-07T16:23:05;2;2;
72023;PMS5003;59889;50.700;5.440;2023-02-07T16:25:30;4;4;
72023;PMS5003;59889;50.700;5.440;2023-02-07T16:27:55;3;3;
72023;PMS5003;59889;50.700;5.440;2023-02-07T16:30:21;3;3;
72023;PMS5003;59889;50.700;5.440;2023-02-07T16:32:45;1;1;
72023;PMS5003;59889;50.700;5.440;2023-02-07T16:37:35;4;3;
72023;PMS5003;59889;50.700;5.440;2023-02-07T16:40:00;5;5;
72023;PMS5003;59889;50.700;5.440;2023-02-07T16:42:25;4;3;
72023;PMS5003;59889;50.700;5.440;2023-02-07T16:44:50;4;4;
72023;PMS5003;59889;50.700;5.440;2023-02-07T16:47:16;3;3;
72023;PMS5003;59889;50.700;5.440;2023-02-07T16:49:41;4;4;
72023;PMS5003;59889;50.700;5.440;2023-02-07T16:52:06;3;3;
72023;PMS5003;59889;50.700;5.440;2023-02-07T16:54:31;4;4;